Time;durP1;ratioP1;P1;durP2;ratioP2;P2;SDS_P1;SDS_P2;PMS_P1;PMS_P2;Temp;Humidity;BMP_temperature;BMP_pressure;BME280_temperature;BME280_humidity;BME280_pressure;Samples;Min_cycle;Max_cycle;Signal;HPM_P1;HPM_P2
2023/08/20 00:02:24;;;;;;;29.37;26.67;;;;;;;25.64;73.95;101226.47;5106103;23;20508;-85
2023/08/20 00:04:56;;;;;;;26.77;24.37;;;;;;;25.48;74.82;101218.28;5018475;28;20436;-85
2023/08/20 00:07:28;;;;;;;27.87;23.00;;;;;;;25.45;74.58;101220.81;5018533;28;20514;-83
2023/08/20 00:10:00;;;;;;;24.13;22.23;;;;;;;25.55;74.20;101225.47;5015974;28;20534;-84
2023/08/20 00:12:30;;;;;;;26.13;23.93;;;;;;;25.55;74.23;101234.59;5008109;28;20515;-85
2023/08/20 00:15:05;;;;;;;23.57;21.57;;;;;;;25.39;74.62;101233.06;5048477;23;20492;-85
2023/08/20 00:17:36;;;;;;;25.47;23.37;;;;;;;25.34;75.49;101235.91;5028302;28;20420;-81
2023/08/20 00:20:12;;;;;;;26.40;24.00;;;;;;;25.32;75.91;101233.41;5027320;28;20429;-83
2023/08/20 00:22:45;;;;;;;28.00;25.50;;;;;;;25.18;76.85;101235.22;5027459;28;20428;-83
2023/08/20 00:25:16;;;;;;;24.07;22.23;;;;;;;25.27;76.11;101239.00;5028312;28;20447;-84
2023/08/20 00:27:45;;;;;;;24.90;22.83;;;;;;;25.19;76.48;101244.34;5025971;28;20495;-81
2023/08/20 00:30:15;;;;;;;27.40;24.67;;;;;;;25.01;77.21;101243.13;5027060;28;20440;-83
2023/08/20 00:32:45;;;;;;;26.20;23.57;;;;;;;24.86;78.61;101246.81;5032241;28;21107;-83
2023/08/20 00:35:14;;;;;;;25.97;23.60;;;;;;;24.72;79.11;101245.81;5031790;28;20435;-82
2023/08/20 00:37:45;;;;;;;26.23;24.13;;;;;;;24.63;79.69;101248.38;5034918;28;20469;-83
2023/08/20 00:40:15;;;;;;;25.00;22.73;;;;;;;24.57;80.00;101255.06;5032823;28;20733;-83
2023/08/20 00:42:44;;;;;;;25.40;22.87;;;;;;;24.72;79.24;101250.53;5029333;28;20487;-81
2023/08/20 00:45:13;;;;;;;23.30;21.60;;;;;;;24.66;79.30;101258.03;5035390;28;20489;-82
2023/08/20 00:47:43;;;;;;;24.67;22.60;;;;;;;24.58;80.08;101244.81;5031255;28;20404;-82
2023/08/20 00:50:14;;;;;;;23.63;21.77;;;;;;;24.50;80.39;101249.00;5030448;28;20432;-82
2023/08/20 00:52:45;;;;;;;24.93;22.77;;;;;;;24.45;80.87;101246.25;5046611;28;20628;-82
2023/08/20 00:55:15;;;;;;;26.20;24.10;;;;;;;24.40;81.32;101253.78;5033984;28;20461;-82
2023/08/20 00:57:44;;;;;;;24.90;22.90;;;;;;;24.40;81.67;101260.13;5028203;28;20447;-82
2023/08/20 01:00:14;;;;;;;42.10;38.43;;;;;;;24.63;80.53;101262.22;5028582;28;20441;-82
2023/08/20 01:02:44;;;;;;;24.97;22.87;;;;;;;24.58;80.91;101267.78;5028101;28;20429;-84
2023/08/20 01:05:17;;;;;;;25.33;23.33;;;;;;;24.53;81.39;101264.22;5028563;28;20456;-83
2023/08/20 01:07:59;;;;;;;21.50;19.57;;;;;;;24.63;81.60;101269.69;5029376;28;20433;-83
2023/08/20 01:10:54;;;;;;;24.27;22.10;;;;;;;24.49;82.71;101272.28;5029792;28;20420;-85
2023/08/20 01:13:24;;;;;;;25.47;22.97;;;;;;;24.45;84.17;101273.94;5029796;28;20480;-84
2023/08/20 01:15:53;;;;;;;23.80;21.90;;;;;;;24.49;84.91;101280.56;5030846;28;20429;-84
2023/08/20 01:18:24;;;;;;;25.40;23.40;;;;;;;24.47;85.80;101288.31;5030839;28;20468;-84
2023/08/20 01:20:57;;;;;;;24.63;21.70;;;;;;;24.47;86.24;101287.47;5029492;28;20451;-84
2023/08/20 01:24:02;;;;;;;24.67;22.20;;;;;;;24.45;87.83;101287.75;5030136;28;20461;-84
2023/08/20 01:27:01;;;;;;;23.70;21.43;;;;;;;24.41;88.85;101288.63;5034083;28;20443;-83
2023/08/20 01:29:33;;;;;;;22.90;20.90;;;;;;;24.36;89.66;101283.09;5029882;28;20439;-83
2023/08/20 01:32:04;;;;;;;24.50;22.47;;;;;;;24.31;91.01;101295.03;5031227;28;20512;-85
2023/08/20 01:34:34;;;;;;;21.93;20.23;;;;;;;24.30;91.35;101287.88;5021795;28;20428;-82
2023/08/20 01:37:03;;;;;;;25.63;23.20;;;;;;;24.23;92.01;101293.69;5029102;28;20417;-84
2023/08/20 01:39:33;;;;;;;23.80;21.37;;;;;;;24.16;92.75;101287.63;5029692;28;20449;-83
2023/08/20 01:42:02;;;;;;;25.10;22.83;;;;;;;24.19;93.06;101289.00;5029374;28;20463;-83
2023/08/20 01:44:33;;;;;;;23.20;21.00;;;;;;;24.20;93.16;101293.44;5025435;28;20519;-85
2023/08/20 01:47:03;;;;;;;22.97;20.97;;;;;;;24.10;94.39;101296.22;5027995;28;20746;-85
2023/08/20 01:49:32;;;;;;;24.43;22.10;;;;;;;24.05;94.78;101297.06;5028974;28;20440;-83
2023/08/20 01:52:03;;;;;;;21.83;19.93;;;;;;;24.02;95.48;101294.84;5027785;28;20441;-83
2023/08/20 01:54:33;;;;;;;21.23;19.50;;;;;;;24.02;95.83;101296.78;5025284;28;20476;-82
2023/08/20 01:57:02;;;;;;;23.57;21.37;;;;;;;23.98;96.26;101287.41;5028338;28;20407;-82
2023/08/20 01:59:33;;;;;;;23.20;20.67;;;;;;;23.94;96.63;101297.38;5019723;28;20501;-81
2023/08/20 02:02:04;;;;;;;23.20;21.13;;;;;;;23.89;97.75;101309.25;5020570;28;20480;-81
2023/08/20 02:04:34;;;;;;;22.70;20.57;;;;;;;23.87;97.91;101313.44;5029045;28;20445;-83
2023/08/20 02:07:03;;;;;;;24.27;22.07;;;;;;;23.74;98.69;101307.38;5029533;28;20484;-81
2023/08/20 02:09:33;;;;;;;24.10;21.90;;;;;;;23.72;99.48;101312.34;5029530;28;20457;-83
2023/08/20 02:12:02;;;;;;;23.40;20.93;;;;;;;23.72;99.88;101314.28;5030376;28;20421;-82
2023/08/20 02:14:34;;;;;;;22.77;20.77;;;;;;;23.63;100.00;101316.78;5031471;28;20499;-83
2023/08/20 02:17:04;;;;;;;24.10;21.90;;;;;;;23.64;100.00;101315.69;5034922;28;20445;-83
2023/08/20 02:19:35;;;;;;;23.30;21.03;;;;;;;23.68;100.00;101321.47;5034539;28;20456;-82
2023/08/20 02:22:05;;;;;;;23.43;21.30;;;;;;;23.67;100.00;101328.13;5035197;28;20388;-81
2023/08/20 02:24:34;;;;;;;22.37;20.13;;;;;;;23.64;100.00;101318.44;5029069;28;20471;-84
2023/08/20 02:27:04;;;;;;;24.77;22.47;;;;;;;23.60;100.00;101331.16;5033727;28;20414;-85
2023/08/20 02:29:34;;;;;;;23.87;21.37;;;;;;;23.57;100.00;101328.13;5018502;28;20422;-82
2023/08/20 02:32:03;;;;;;;23.07;20.97;;;;;;;23.53;100.00;101332.56;5030322;28;20501;-79
2023/08/20 02:34:33;;;;;;;22.10;20.13;;;;;;;23.47;100.00;101331.72;5018504;28;20854;-80
2023/08/20 02:37:02;;;;;;;22.83;20.93;;;;;;;23.52;100.00;101330.91;5027164;28;20436;-80
2023/08/20 02:39:32;;;;;;;22.63;20.53;;;;;;;23.51;100.00;101343.88;5032562;28;20459;-80
2023/08/20 02:42:03;;;;;;;23.40;21.17;;;;;;;23.40;100.00;101333.91;5034436;28;20436;-81
2023/08/20 02:44:34;;;;;;;22.63;20.57;;;;;;;23.40;100.00;101339.41;5029616;28;20874;-81
2023/08/20 02:47:03;;;;;;;23.07;20.90;;;;;;;23.42;100.00;101339.16;5030768;28;20432;-81
2023/08/20 02:49:32;;;;;;;22.47;20.30;;;;;;;23.23;100.00;101339.72;5023650;28;20421;-81
2023/08/20 02:52:02;;;;;;;22.40;20.10;;;;;;;23.29;100.00;101338.59;5030319;28;20437;-81
2023/08/20 02:54:33;;;;;;;21.73;19.83;;;;;;;23.21;100.00;101338.31;5025104;28;20470;-80
2023/08/20 02:57:02;;;;;;;24.43;22.03;;;;;;;23.24;100.00;101340.50;5029121;28;20415;-80
2023/08/20 02:59:34;;;;;;;23.30;20.93;;;;;;;23.18;100.00;101338.88;5017286;28;20476;-82
2023/08/20 03:02:03;;;;;;;22.27;20.17;;;;;;;23.17;100.00;101351.03;5019758;28;20441;-80
2023/08/20 03:04:34;;;;;;;23.47;21.17;;;;;;;23.13;100.00;101349.91;5028963;28;20445;-81
2023/08/20 03:07:04;;;;;;;23.57;21.23;;;;;;;23.09;100.00;101346.84;5032078;28;20453;-80
2023/08/20 03:09:33;;;;;;;24.10;21.90;;;;;;;23.03;100.00;101345.22;5032289;28;20494;-80
2023/08/20 03:12:03;;;;;;;23.20;21.20;;;;;;;23.03;100.00;101355.44;5032518;28;20467;-81
2023/08/20 03:14:33;;;;;;;23.77;21.67;;;;;;;23.05;100.00;101354.03;5033061;28;20447;-82
2023/08/20 03:17:03;;;;;;;22.53;20.07;;;;;;;22.96;100.00;101361.19;5035971;28;20437;-81
2023/08/20 03:19:35;;;;;;;23.23;21.33;;;;;;;22.93;100.00;101368.09;5030930;28;20432;-80
2023/08/20 03:22:05;;;;;;;23.17;20.80;;;;;;;22.87;100.00;101373.88;5032080;28;20423;-81
2023/08/20 03:24:34;;;;;;;23.60;21.50;;;;;;;22.88;100.00;101373.63;5030074;28;20675;-81
2023/08/20 03:27:03;;;;;;;25.43;23.07;;;;;;;22.81;100.00;101373.03;5031185;28;20423;-81
2023/08/20 03:29:34;;;;;;;22.63;20.73;;;;;;;22.71;100.00;101374.91;5029268;28;20416;-82
2023/08/20 03:32:03;;;;;;;23.53;21.33;;;;;;;22.68;100.00;101370.75;5030070;28;20440;-81
2023/08/20 03:34:33;;;;;;;25.40;22.73;;;;;;;22.53;100.00;101376.22;5029781;28;20462;-79
2023/08/20 03:37:02;;;;;;;24.37;22.17;;;;;;;22.53;100.00;101374.28;5030433;28;20412;-81
2023/08/20 03:39:32;;;;;;;23.50;21.20;;;;;;;22.65;100.00;101376.84;5031810;28;20455;-80
2023/08/20 03:42:01;;;;;;;22.50;20.30;;;;;;;22.63;100.00;101372.66;5030411;28;20404;-80
2023/08/20 03:44:31;;;;;;;22.80;20.70;;;;;;;22.54;100.00;101375.13;5034953;28;20441;-81
2023/08/20 03:47:02;;;;;;;24.13;21.87;;;;;;;22.46;100.00;101370.94;5032671;28;20396;-82
2023/08/20 03:49:31;;;;;;;23.77;21.37;;;;;;;22.41;100.00;101365.41;5027058;28;21016;-81
2023/08/20 03:52:01;;;;;;;24.47;21.83;;;;;;;22.51;100.00;101370.97;5028919;28;20435;-82
2023/08/20 03:54:31;;;;;;;23.63;21.43;;;;;;;22.47;100.00;101374.53;5028808;28;20475;-82
2023/08/20 03:57:00;;;;;;;22.20;20.30;;;;;;;22.51;100.00;101393.03;5030437;28;20467;-82
2023/08/20 03:59:30;;;;;;;23.27;21.20;;;;;;;22.43;100.00;101392.72;5027591;28;20480;-82
2023/08/20 04:02:01;;;;;;;24.43;22.13;;;;;;;22.42;100.00;101399.31;5028904;28;20445;-82
2023/08/20 04:04:31;;;;;;;23.93;21.73;;;;;;;22.37;100.00;101391.84;5027873;28;20420;-83
2023/08/20 04:07:01;;;;;;;23.30;21.20;;;;;;;22.43;100.00;101393.56;5027841;28;20512;-82
2023/08/20 04:09:31;;;;;;;23.23;20.83;;;;;;;22.43;100.00;101401.00;5028300;28;20441;-82
2023/08/20 04:12:01;;;;;;;25.40;23.10;;;;;;;22.35;100.00;101398.75;5027481;28;20440;-81
2023/08/20 04:14:30;;;;;;;23.70;21.60;;;;;;;22.33;100.00;101395.44;5030012;28;20444;-82
2023/08/20 04:17:01;;;;;;;24.60;22.17;;;;;;;22.33;100.00;101398.19;5037391;28;20636;-81
2023/08/20 04:19:33;;;;;;;28.17;25.53;;;;;;;22.37;100.00;101391.03;5030404;28;20416;-80
2023/08/20 04:22:02;;;;;;;26.03;21.50;;;;;;;22.37;100.00;101385.50;5032138;28;20436;-81
2023/08/20 04:24:32;;;;;;;26.60;23.90;;;;;;;22.47;100.00;101404.88;5029986;28;20451;-81
2023/08/20 04:27:02;;;;;;;23.83;21.40;;;;;;;22.48;100.00;101401.84;5033493;28;20431;-82
2023/08/20 04:29:31;;;;;;;25.23;22.70;;;;;;;22.51;100.00;101397.75;5028951;28;20440;-82
2023/08/20 04:32:02;;;;;;;24.90;22.40;;;;;;;22.81;100.00;101403.38;5032295;28;20408;-83
2023/08/20 04:34:31;;;;;;;25.20;23.00;;;;;;;23.51;100.00;101412.09;5014457;28;20535;-82
2023/08/20 04:37:01;;;;;;;23.13;21.23;;;;;;;23.89;100.00;101407.94;5020425;28;20455;-81
2023/08/20 04:39:30;;;;;;;23.27;20.87;;;;;;;24.36;98.96;101413.94;5022585;28;20713;-82
2023/08/20 04:42:00;;;;;;;23.20;21.30;;;;;;;24.52;96.59;101412.78;5031734;28;20440;-82
2023/08/20 04:44:29;;;;;;;24.67;22.47;;;;;;;24.78;94.06;101415.44;5026761;28;20435;-82
2023/08/20 04:46:58;;;;;;;22.33;20.23;;;;;;;25.00;92.19;101407.59;5033036;28;20429;-83
2023/08/20 04:49:30;;;;;;;20.93;19.03;;;;;;;24.77;93.99;101419.31;5025996;28;20433;-81
2023/08/20 04:52:01;;;;;;;22.57;20.67;;;;;;;24.96;92.14;101429.50;5030022;28;20445;-82
2023/08/20 04:54:31;;;;;;;21.50;19.60;;;;;;;24.29;96.49;101429.19;5034070;28;20469;-81
2023/08/20 04:57:00;;;;;;;22.17;20.20;;;;;;;23.99;100.00;101418.97;5036124;28;20476;-81
2023/08/20 04:59:30;;;;;;;22.20;20.10;;;;;;;24.24;98.89;101424.50;5031134;28;20437;-84
2023/08/20 05:02:28;;;;;;;21.47;19.67;;;;;;;24.87;93.89;101430.38;5015870;28;20521;-82
2023/08/20 05:05:03;;;;;;;23.00;20.80;;;;;;;24.72;94.39;101425.72;5026940;28;20449;-83
2023/08/20 05:07:33;;;;;;;23.03;20.83;;;;;;;24.42;96.78;101432.19;5028414;28;20460;-81
2023/08/20 05:10:02;;;;;;;23.60;21.27;;;;;;;24.42;96.38;101440.50;5028563;28;20408;-83
2023/08/20 05:12:32;;;;;;;22.20;20.20;;;;;;;24.37;96.73;101448.78;5029137;28;20429;-82
2023/08/20 05:15:01;;;;;;;24.53;22.30;;;;;;;24.05;98.81;101435.28;5026957;28;20476;-82
2023/08/20 05:17:30;;;;;;;24.13;22.03;;;;;;;23.81;100.00;101434.22;5026515;28;20441;-82
2023/08/20 05:20:00;;;;;;;28.57;25.60;;;;;;;23.74;100.00;101445.53;5024592;28;20437;-83
2023/08/20 05:22:31;;;;;;;27.60;24.97;;;;;;;23.57;100.00;101438.63;5017951;28;20412;-83
2023/08/20 05:25:00;;;;;;;26.27;23.90;;;;;;;23.48;100.00;101440.28;5018489;28;20828;-82
2023/08/20 05:27:29;;;;;;;26.07;23.70;;;;;;;23.49;100.00;101441.91;5019877;28;20422;-82
2023/08/20 05:29:59;;;;;;;24.70;22.20;;;;;;;23.67;100.00;101450.50;5028279;28;20441;-82
2023/08/20 05:32:28;;;;;;;24.30;21.87;;;;;;;23.40;100.00;101444.38;5027397;28;20479;-82
2023/08/20 05:34:59;;;;;;;25.90;23.53;;;;;;;23.50;100.00;101455.47;5021561;28;20466;-81
2023/08/20 05:37:30;;;;;;;27.47;24.90;;;;;;;23.33;100.00;101460.41;5028391;28;20437;-81
2023/08/20 05:39:59;;;;;;;26.07;23.60;;;;;;;23.39;100.00;101462.03;5030104;28;20425;-82
2023/08/20 05:42:34;;;;;;;26.23;23.90;;;;;;;23.27;100.00;101478.06;5025810;28;20468;-84
2023/08/20 05:45:08;;;;;;;26.77;24.27;;;;;;;23.40;100.00;101480.28;5027657;28;20479;-83
2023/08/20 05:47:37;;;;;;;26.27;23.97;;;;;;;23.37;100.00;101478.06;5028263;28;20439;-83
2023/08/20 05:50:09;;;;;;;27.67;25.03;;;;;;;23.46;100.00;101481.16;5026308;28;20411;-84
2023/08/20 05:52:40;;;;;;;25.93;23.30;;;;;;;23.40;100.00;101483.88;5029475;28;20477;-83
2023/08/20 05:55:09;;;;;;;27.30;24.57;;;;;;;23.25;100.00;101477.47;5032137;28;20770;-82
2023/08/20 05:57:39;;;;;;;26.50;24.00;;;;;;;23.33;100.00;101482.50;5034831;28;20461;-86
2023/08/20 06:00:10;;;;;;;26.73;24.23;;;;;;;23.42;100.00;101480.00;5032117;28;20429;-85
2023/08/20 06:02:42;;;;;;;28.00;25.20;;;;;;;23.64;100.00;101473.16;5033429;28;20424;-82
2023/08/20 06:05:12;;;;;;;27.93;25.00;;;;;;;23.70;100.00;101483.13;5032740;28;20490;-83
2023/08/20 06:07:43;;;;;;;27.73;25.00;;;;;;;23.74;100.00;101484.22;5030378;28;20436;-84
2023/08/20 06:10:12;;;;;;;27.80;22.80;;;;;;;23.94;100.00;101488.94;5032103;28;20483;-83
2023/08/20 06:12:42;;;;;;;23.87;21.80;;;;;;;23.70;100.00;101476.75;5034086;28;20417;-83
2023/08/20 06:15:11;;;;;;;29.83;26.63;;;;;;;23.64;100.00;101472.31;5060573;23;20492;-85
2023/08/20 06:17:41;;;;;;;26.33;23.80;;;;;;;23.53;100.00;101465.97;5041379;28;20438;-83
2023/08/20 06:20:12;;;;;;;26.20;23.80;;;;;;;23.63;100.00;101478.94;5056337;28;20499;-85
2023/08/20 06:22:42;;;;;;;26.60;24.10;;;;;;;23.68;100.00;101490.00;5049847;28;20443;-85
2023/08/20 06:25:12;;;;;;;25.37;23.07;;;;;;;23.83;99.79;101498.31;5019741;28;20455;-84
2023/08/20 06:27:42;;;;;;;25.43;22.87;;;;;;;23.92;99.97;101490.28;5014729;28;20457;-86
2023/08/20 06:30:12;;;;;;;25.60;23.30;;;;;;;24.07;98.72;101493.06;5024105;28;20445;-85
2023/08/20 06:32:42;;;;;;;25.30;22.80;;;;;;;24.28;96.70;101500.28;5020365;28;20422;-84
2023/08/20 06:35:12;;;;;;;23.90;21.63;;;;;;;24.50;94.90;101505.47;5033072;28;20496;-85
2023/08/20 06:37:43;;;;;;;23.87;21.47;;;;;;;24.32;95.73;101512.44;5032798;28;20631;-84
2023/08/20 06:40:13;;;;;;;26.23;23.63;;;;;;;24.43;95.28;101507.72;5033900;28;20953;-83
2023/08/20 06:42:43;;;;;;;25.77;23.43;;;;;;;24.74;91.65;101517.56;5024810;28;20907;-83
2023/08/20 06:45:14;;;;;;;24.80;22.70;;;;;;;24.71;92.04;101522.84;5022649;28;20466;-84
2023/08/20 06:47:44;;;;;;;26.63;23.80;;;;;;;24.65;92.96;101517.34;5024872;28;20400;-85
2023/08/20 06:50:14;;;;;;;25.80;22.77;;;;;;;24.22;94.51;101526.25;5025148;28;20451;-85
2023/08/20 06:52:46;;;;;;;24.33;21.93;;;;;;;24.27;94.97;101526.25;5028190;28;20526;-87
2023/08/20 06:55:15;;;;;;;23.90;21.43;;;;;;;23.83;97.07;101520.44;5012427;28;20435;-86
2023/08/20 06:57:45;;;;;;;25.43;23.00;;;;;;;23.78;98.10;101518.50;5033626;28;20499;-85
2023/08/20 07:00:15;;;;;;;24.60;22.50;;;;;;;23.66;98.92;101519.88;5025174;28;20464;-83
2023/08/20 07:02:46;;;;;;;24.87;22.37;;;;;;;23.69;99.08;101525.66;5020890;28;20492;-86
2023/08/20 07:05:17;;;;;;;23.57;21.13;;;;;;;23.78;98.37;101528.72;5020043;28;20453;-86
2023/08/20 07:07:49;;;;;;;27.03;24.60;;;;;;;23.66;99.50;101540.03;5018736;28;20445;-85
2023/08/20 07:10:19;;;;;;;24.83;22.40;;;;;;;23.68;99.03;101551.63;5015199;28;20804;-84
2023/08/20 07:12:48;;;;;;;26.30;23.77;;;;;;;23.81;98.55;101544.75;5022437;28;20496;-86
2023/08/20 07:15:18;;;;;;;24.80;22.10;;;;;;;23.78;98.09;101559.09;5021254;28;20453;-85
2023/08/20 07:17:49;;;;;;;25.37;22.70;;;;;;;23.90;97.22;101558.88;5019284;28;20445;-85
2023/08/20 07:20:19;;;;;;;26.37;23.50;;;;;;;24.43;94.08;101552.81;5026356;28;20836;-86
2023/08/20 07:22:50;;;;;;;24.20;21.70;;;;;;;24.84;90.23;101555.47;5011832;28;20510;-85
2023/08/20 07:25:20;;;;;;;21.30;19.30;;;;;;;25.25;88.14;101565.34;5027600;28;20479;-85
2023/08/20 07:27:52;;;;;;;23.70;21.27;;;;;;;25.63;85.95;101565.72;5027680;28;20413;-85
2023/08/20 07:30:22;;;;;;;22.57;20.47;;;;;;;24.79;88.26;101566.56;5025910;28;20437;-83
2023/08/20 07:32:54;;;;;;;23.73;21.43;;;;;;;24.43;90.65;101574.94;5020480;28;20437;-85
2023/08/20 07:35:24;;;;;;;24.40;21.97;;;;;;;23.73;95.56;101576.50;5025414;28;20454;-84
2023/08/20 07:37:57;;;;;;;25.53;22.47;;;;;;;23.37;98.43;101577.50;5017955;28;20437;-84
2023/08/20 07:40:28;;;;;;;24.40;22.00;;;;;;;23.47;99.11;101568.44;5017186;28;20436;-85
2023/08/20 07:42:58;;;;;;;24.97;22.70;;;;;;;23.78;97.64;101562.72;5025035;28;20524;-84
2023/08/20 07:45:28;;;;;;;25.00;21.67;;;;;;;23.83;95.28;101568.25;5024974;28;20492;-84
2023/08/20 07:47:57;;;;;;;26.13;23.37;;;;;;;23.58;95.97;101573.72;5013717;28;20449;-84
2023/08/20 07:50:27;;;;;;;23.83;21.33;;;;;;;23.50;98.52;101582.53;5025722;28;20460;-84
2023/08/20 07:52:58;;;;;;;21.70;19.40;;;;;;;23.97;95.52;101587.03;5020240;28;20444;-83
2023/08/20 07:55:28;;;;;;;24.43;22.13;;;;;;;24.00;94.20;101581.00;5026942;28;20455;-83
2023/08/20 07:57:58;;;;;;;24.03;21.73;;;;;;;24.15;93.28;101584.59;5031603;28;20431;-83
2023/08/20 08:00:27;;;;;;;23.27;20.80;;;;;;;24.13;92.11;101583.19;5039896;28;20444;-84
2023/08/20 08:02:57;;;;;;;24.80;22.33;;;;;;;24.13;92.09;101591.50;5036054;28;20435;-82
2023/08/20 08:05:27;;;;;;;25.50;22.73;;;;;;;23.94;93.04;101584.84;5035003;28;20449;-83
2023/08/20 08:07:59;;;;;;;20.67;18.77;;;;;;;24.59;90.75;101584.84;5031666;28;20449;-83
2023/08/20 08:10:28;;;;;;;21.77;19.87;;;;;;;24.43;89.33;101591.53;5025237;28;20422;-83
2023/08/20 08:12:58;;;;;;;21.00;19.00;;;;;;;24.83;87.95;101584.28;5025744;28;20437;-83
2023/08/20 08:15:28;;;;;;;21.00;19.07;;;;;;;25.15;85.53;101587.53;5036923;28;20434;-86
2023/08/20 08:17:58;;;;;;;18.67;17.10;;;;;;;25.33;83.79;101584.13;5023520;28;20829;-81
2023/08/20 08:20:31;;;;;;;30.20;27.00;;;;;;;25.55;82.53;101594.03;5029287;28;20475;-85
2023/08/20 08:23:04;;;;;;;18.80;17.20;;;;;;;25.71;80.45;101590.03;5027076;28;20437;-83
2023/08/20 08:25:34;;;;;;;17.67;15.93;;;;;;;25.33;81.27;101594.38;5025960;28;20469;-86
2023/08/20 08:28:04;;;;;;;17.83;16.03;;;;;;;25.20;82.10;101584.75;5032427;28;20402;-84
2023/08/20 08:30:34;;;;;;;17.93;16.23;;;;;;;25.03;81.48;101589.78;5018062;28;20423;-85
2023/08/20 08:33:04;;;;;;;17.77;16.10;;;;;;;25.25;81.83;101587.50;5023182;28;20450;-85
2023/08/20 08:36:03;;;;;;;15.50;14.20;;;;;;;25.40;79.38;101592.13;5021908;28;20449;-88
2023/08/20 08:38:36;;;;;;;16.03;14.57;;;;;;;25.66;78.46;101603.97;5030716;28;20548;-83
2023/08/20 08:41:11;;;;;;;15.87;14.27;;;;;;;25.83;76.78;101598.84;5023653;28;20939;-86
2023/08/20 08:43:43;;;;;;;13.40;12.17;;;;;;;26.14;75.13;101591.97;5021443;28;20503;-86
2023/08/20 08:46:14;;;;;;;14.17;12.87;;;;;;;26.09;74.29;101586.47;5029712;28;20425;-86
2023/08/20 08:48:47;;;;;;;12.40;11.30;;;;;;;26.15;73.33;101574.19;5021799;28;20449;-86
2023/08/20 08:51:17;;;;;;;10.30;9.30;;;;;;;25.96;71.54;101571.31;5020969;28;20417;-86
2023/08/20 08:53:50;;;;;;;11.53;10.27;;;;;;;26.19;71.20;101580.81;5020814;28;20468;-84
2023/08/20 08:56:24;;;;;;;11.90;10.90;;;;;;;26.08;70.92;101587.59;5031489;28;20464;-85
2023/08/20 08:58:55;;;;;;;10.20;9.30;;;;;;;26.31;70.38;101584.09;5027006;28;20870;-87
2023/08/20 09:01:26;;;;;;;10.97;9.97;;;;;;;26.38;68.86;101578.22;5018696;28;20832;-84
2023/08/20 09:03:57;;;;;;;9.40;8.50;;;;;;;26.13;68.66;101576.47;5005264;28;20469;-85
2023/08/20 09:06:28;;;;;;;9.67;8.87;;;;;;;26.08;69.86;101573.72;5012255;28;20396;-86
2023/08/20 09:09:07;;;;;;;11.97;10.70;;;;;;;26.64;67.30;101581.56;5018652;28;20453;-85
2023/08/20 09:11:39;;;;;;;8.60;7.87;;;;;;;26.73;65.28;101582.56;5020545;28;20452;-84
2023/08/20 09:14:21;;;;;;;11.03;7.83;;;;;;;26.63;64.55;101586.28;5025998;28;21020;-86
2023/08/20 09:17:01;;;;;;;9.10;8.30;;;;;;;26.76;63.94;101580.06;5026622;28;20577;-86
2023/08/20 09:19:39;;;;;;;9.27;8.47;;;;;;;27.38;63.30;101580.19;5029495;28;20453;-86
2023/08/20 09:22:25;;;;;;;9.23;8.33;;;;;;;27.69;62.72;101583.41;5018143;28;20469;-85
2023/08/20 09:25:00;;;;;;;8.50;7.77;;;;;;;27.38;62.05;101580.19;5031007;28;20468;-86
2023/08/20 09:27:31;;;;;;;8.63;7.57;;;;;;;27.45;63.23;101587.00;5031301;28;20456;-86
2023/08/20 09:30:23;;;;;;;8.37;7.57;;;;;;;27.09;63.08;101583.88;5028687;28;20449;-86
2023/08/20 09:33:10;;;;;;;11.30;8.07;;;;;;;26.81;64.85;101562.50;5046047;28;20437;-85
2023/08/20 09:35:51;;;;;;;8.37;7.57;;;;;;;26.84;65.16;101570.25;5048855;28;20479;-86
2023/08/20 09:38:22;;;;;;;8.50;7.23;;;;;;;26.89;64.21;101567.44;5038352;28;20437;-86
2023/08/20 09:40:56;;;;;;;9.53;8.30;;;;;;;27.31;64.24;101563.03;5036577;28;20473;-84
2023/08/20 09:43:31;;;;;;;10.40;9.37;;;;;;;27.66;63.48;101576.47;5029915;28;20525;-84
2023/08/20 09:46:03;;;;;;;9.77;8.90;;;;;;;27.53;62.83;101588.34;5032670;28;20838;-85
2023/08/20 09:48:36;;;;;;;9.97;9.07;;;;;;;27.64;62.42;101585.09;5014155;28;20428;-87
2023/08/20 09:51:08;;;;;;;8.63;7.93;;;;;;;27.64;61.54;101595.44;5039045;28;20483;-86
2023/08/20 09:53:46;;;;;;;8.57;7.87;;;;;;;27.40;61.83;101589.06;5032401;28;20463;-85
2023/08/20 09:56:28;;;;;;;9.00;8.10;;;;;;;27.82;62.01;101596.56;5016528;28;20525;-85
2023/08/20 09:58:59;;;;;;;13.03;7.40;;;;;;;27.82;60.80;101594.59;5002867;28;20461;-86
2023/08/20 10:01:31;;;;;;;8.87;8.00;;;;;;;27.79;59.64;101597.97;5016094;28;20457;-85
2023/08/20 10:04:02;;;;;;;8.80;8.00;;;;;;;27.60;61.23;101597.97;5035342;28;20470;-84
2023/08/20 10:06:35;;;;;;;11.83;10.73;;;;;;;27.59;59.63;101596.28;5030720;28;20511;-86
2023/08/20 10:09:08;;;;;;;7.30;6.70;;;;;;;27.64;59.97;101604.56;5041887;28;20473;-86
2023/08/20 10:11:41;;;;;;;8.97;7.77;;;;;;;28.07;58.60;101599.78;5030441;28;20437;-85
2023/08/20 10:14:11;;;;;;;7.70;7.07;;;;;;;28.40;57.69;101597.03;5027158;28;20476;-87
2023/08/20 10:16:42;;;;;;;6.07;5.17;;;;;;;28.20;56.96;101602.94;5042875;28;20534;-87
2023/08/20 10:19:11;;;;;;;6.00;5.50;;;;;;;27.95;56.72;101595.78;5044961;28;20428;-85
2023/08/20 10:21:46;;;;;;;6.13;5.30;;;;;;;27.87;57.72;101591.75;5045044;28;20432;-86
2023/08/20 10:24:19;;;;;;;6.10;4.70;;;;;;;28.15;56.51;101586.31;5025951;28;20499;-86
2023/08/20 10:27:08;;;;;;;5.60;5.10;;;;;;;28.00;54.87;101587.38;5035495;28;20435;-85
2023/08/20 10:29:39;;;;;;;4.77;4.37;;;;;;;27.83;54.74;101582.34;5033048;28;20437;-86
2023/08/20 10:32:11;;;;;;;7.50;4.43;;;;;;;27.92;55.67;101576.94;5042357;28;20429;-86
2023/08/20 10:34:51;;;;;;;5.30;4.30;;;;;;;28.10;54.81;101579.69;5044015;28;20429;-85
2023/08/20 10:37:29;;;;;;;5.27;4.77;;;;;;;28.30;52.24;101574.94;5035035;28;20555;-84
2023/08/20 10:40:04;;;;;;;4.67;4.10;;;;;;;27.88;52.81;101573.94;5027725;28;20444;-84
2023/08/20 10:42:44;;;;;;;4.60;3.90;;;;;;;27.84;53.92;101574.81;5036037;28;20462;-86
2023/08/20 10:45:15;;;;;;;4.43;4.03;;;;;;;27.99;52.91;101575.41;5036810;28;20444;-86
2023/08/20 10:47:45;;;;;;;3.90;3.60;;;;;;;28.46;53.29;101579.13;5036787;28;20435;-85
2023/08/20 10:50:19;;;;;;;3.80;3.13;;;;;;;28.52;50.96;101587.06;5049742;28;20433;-85
2023/08/20 10:52:56;;;;;;;5.27;3.43;;;;;;;28.67;51.83;101580.38;5038785;28;20420;-86
2023/08/20 10:55:26;;;;;;;4.40;3.57;;;;;;;28.91;50.59;101577.44;5025420;28;20460;-85
2023/08/20 10:58:02;;;;;;;3.80;3.40;;;;;;;28.80;51.36;101585.19;5032047;28;20456;-86
2023/08/20 11:00:33;;;;;;;4.00;3.67;;;;;;;28.83;50.73;101581.78;5018826;28;21006;-84
2023/08/20 11:03:03;;;;;;;5.07;4.00;;;;;;;28.42;51.67;101583.63;5031288;28;20439;-86
2023/08/20 11:05:34;;;;;;;4.57;3.60;;;;;;;28.69;51.72;101578.13;5022884;28;20449;-85
2023/08/20 11:08:07;;;;;;;4.40;4.00;;;;;;;29.10;50.28;101575.38;5007940;28;20434;-87
2023/08/20 11:10:37;;;;;;;4.33;3.50;;;;;;;28.70;48.96;101593.72;5020791;28;20826;-85
2023/08/20 11:13:10;;;;;;;4.07;3.60;;;;;;;28.39;49.74;101590.63;5027155;28;20471;-84
2023/08/20 11:15:40;;;;;;;4.37;3.97;;;;;;;28.60;50.28;101584.72;5038925;28;20520;-86
2023/08/20 11:18:10;;;;;;;4.63;3.20;;;;;;;28.95;49.35;101587.66;5021954;28;20461;-86
2023/08/20 11:20:40;;;;;;;12.50;3.63;;;;;;;29.08;49.23;101596.34;5028061;28;20452;-86
2023/08/20 11:23:12;;;;;;;3.63;3.23;;;;;;;28.97;50.02;101589.31;5014561;28;20444;-85
2023/08/20 11:25:43;;;;;;;3.97;3.60;;;;;;;28.69;48.47;101582.88;5030504;28;20496;-85
2023/08/20 11:28:15;;;;;;;2.87;2.67;;;;;;;28.68;49.19;101582.03;5027416;28;20449;-87
2023/08/20 11:30:47;;;;;;;5.50;3.13;;;;;;;28.68;48.56;101582.03;5039918;28;20453;-84